sensor_id;sensor_type;location;lat;lon;timestamp;temperature;humidity
39045;DHT22;52192;52.002;5.956;2023-02-16T00:01:53;9.40;69.20
39045;DHT22;52192;52.002;5.956;2023-02-16T00:04:29;9.40;69.10
39045;DHT22;52192;52.002;5.956;2023-02-16T00:06:56;9.40;69.00
39045;DHT22;52192;52.002;5.956;2023-02-16T00:09:23;9.30;69.10
39045;DHT22;52192;52.002;5.956;2023-02-16T00:11:49;9.40;69.10
39045;DHT22;52192;52.002;5.956;2023-02-16T00:14:35;9.30;69.00
39045;DHT22;52192;52.002;5.956;2023-02-16T00:17:02;9.30;69.00
39045;DHT22;52192;52.002;5.956;2023-02-16T00:19:39;9.30;69.20
39045;DHT22;52192;52.002;5.956;2023-02-16T00:22:06;9.30;69.10
39045;DHT22;52192;52.002;5.956;2023-02-16T00:24:32;9.30;69.20
39045;DHT22;52192;52.002;5.956;2023-02-16T00:26:58;9.30;69.30
39045;DHT22;52192;52.002;5.956;2023-02-16T00:29:30;9.20;69.30
39045;DHT22;52192;52.002;5.956;2023-02-16T00:31:57;9.20;69.60
39045;DHT22;52192;52.002;5.956;2023-02-16T00:34:35;9.20;69.70
39045;DHT22;52192;52.002;5.956;2023-02-16T00:37:04;9.20;69.70
39045;DHT22;52192;52.002;5.956;2023-02-16T00:39:30;9.10;69.70
39045;DHT22;52192;52.002;5.956;2023-02-16T00:42:05;9.10;69.80
39045;DHT22;52192;52.002;5.956;2023-02-16T00:47:15;9.10;70.00
39045;DHT22;52192;52.002;5.956;2023-02-16T00:49:43;9.00;69.90
39045;DHT22;52192;52.002;5.956;2023-02-16T00:54:46;8.90;70.00
39045;DHT22;52192;52.002;5.956;2023-02-16T00:57:16;8.90;70.00
39045;DHT22;52192;52.002;5.956;2023-02-16T00:59:42;8.90;70.10
39045;DHT22;52192;52.002;5.956;2023-02-16T01:02:08;8.80;70.00
39045;DHT22;52192;52.002;5.956;2023-02-16T01:04:34;8.70;70.10
39045;DHT22;52192;52.002;5.956;2023-02-16T01:06:59;8.70;70.20
39045;DHT22;52192;52.002;5.956;2023-02-16T01:09:44;8.70;70.20
39045;DHT22;52192;52.002;5.956;2023-02-16T01:12:28;8.70;70.30
39045;DHT22;52192;52.002;5.956;2023-02-16T01:14:54;8.60;70.20
39045;DHT22;52192;52.002;5.956;2023-02-16T01:17:20;8.60;70.30
39045;DHT22;52192;52.002;5.956;2023-02-16T01:19:46;8.50;70.20
39045;DHT22;52192;52.002;5.956;2023-02-16T01:22:12;8.50;70.20
39045;DHT22;52192;52.002;5.956;2023-02-16T01:24:38;8.40;70.20
39045;DHT22;52192;52.002;5.956;2023-02-16T01:27:03;8.30;70.30
39045;DHT22;52192;52.002;5.956;2023-02-16T01:29:29;8.30;70.30
39045;DHT22;52192;52.002;5.956;2023-02-16T01:31:55;8.30;70.30
39045;DHT22;52192;52.002;5.956;2023-02-16T01:34:21;8.20;70.30
39045;DHT22;52192;52.002;5.956;2023-02-16T01:36:47;8.20;70.30
39045;DHT22;52192;52.002;5.956;2023-02-16T01:39:15;8.10;70.20
39045;DHT22;52192;52.002;5.956;2023-02-16T01:44:31;8.00;70.20
39045;DHT22;52192;52.002;5.956;2023-02-16T01:49:42;7.90;70.50
39045;DHT22;52192;52.002;5.956;2023-02-16T01:52:32;7.80;71.10
39045;DHT22;52192;52.002;5.956;2023-02-16T01:57:42;7.70;70.60
39045;DHT22;52192;52.002;5.956;2023-02-16T02:00:15;7.70;70.50
39045;DHT22;52192;52.002;5.956;2023-02-16T02:02:45;7.60;70.50
39045;DHT22;52192;52.002;5.956;2023-02-16T02:05:26;7.60;70.70
39045;DHT22;52192;52.002;5.956;2023-02-16T02:11:08;7.60;71.00
39045;DHT22;52192;52.002;5.956;2023-02-16T02:13:53;7.50;71.10
39045;DHT22;52192;52.002;5.956;2023-02-16T02:16:23;7.50;71.30
39045;DHT22;52192;52.002;5.956;2023-02-16T02:18:49;7.50;71.30
39045;DHT22;52192;52.002;5.956;2023-02-16T02:21:23;7.40;71.30
39045;DHT22;52192;52.002;5.956;2023-02-16T02:27:23;7.30;71.40
39045;DHT22;52192;52.002;5.956;2023-02-16T02:46:20;7.10;72.00
39045;DHT22;52192;52.002;5.956;2023-02-16T02:48:49;7.10;72.00
39045;DHT22;52192;52.002;5.956;2023-02-16T02:51:15;7.00;72.00
39045;DHT22;52192;52.002;5.956;2023-02-16T02:56:41;7.00;72.10
39045;DHT22;52192;52.002;5.956;2023-02-16T02:59:28;7.00;72.00
39045;DHT22;52192;52.002;5.956;2023-02-16T03:02:14;7.00;72.20
39045;DHT22;52192;52.002;5.956;2023-02-16T03:04:41;7.00;72.30
39045;DHT22;52192;52.002;5.956;2023-02-16T03:07:07;7.00;72.30
39045;DHT22;52192;52.002;5.956;2023-02-16T03:09:34;7.00;72.60
39045;DHT22;52192;52.002;5.956;2023-02-16T03:12:01;7.10;72.60
39045;DHT22;52192;52.002;5.956;2023-02-16T03:14:57;7.10;72.50
39045;DHT22;52192;52.002;5.956;2023-02-16T03:17:32;7.20;72.60
39045;DHT22;52192;52.002;5.956;2023-02-16T03:20:18;7.30;72.60
39045;DHT22;52192;52.002;5.956;2023-02-16T03:23:04;7.30;72.80
39045;DHT22;52192;52.002;5.956;2023-02-16T03:25:49;7.30;72.80
39045;DHT22;52192;52.002;5.956;2023-02-16T03:28:36;7.30;72.90
39045;DHT22;52192;52.002;5.956;2023-02-16T03:31:33;7.30;73.00
39045;DHT22;52192;52.002;5.956;2023-02-16T03:34:00;7.20;73.00
39045;DHT22;52192;52.002;5.956;2023-02-16T03:36:29;7.20;73.10
39045;DHT22;52192;52.002;5.956;2023-02-16T03:38:56;7.20;73.00
39045;DHT22;52192;52.002;5.956;2023-02-16T03:41:24;7.20;72.90
39045;DHT22;52192;52.002;5.956;2023-02-16T03:43:50;7.20;73.00
39045;DHT22;52192;52.002;5.956;2023-02-16T03:46:16;7.10;72.90
39045;DHT22;52192;52.002;5.956;2023-02-16T03:48:42;7.10;72.80
39045;DHT22;52192;52.002;5.956;2023-02-16T03:51:08;7.00;72.80
39045;DHT22;52192;52.002;5.956;2023-02-16T03:53:33;7.00;72.90
39045;DHT22;52192;52.002;5.956;2023-02-16T03:55:59;7.00;72.90
39045;DHT22;52192;52.002;5.956;2023-02-16T03:58:25;6.90;72.80
39045;DHT22;52192;52.002;5.956;2023-02-16T04:00:51;6.90;73.00
39045;DHT22;52192;52.002;5.956;2023-02-16T04:03:18;6.90;73.00
39045;DHT22;52192;52.002;5.956;2023-02-16T04:05:44;6.90;73.10
39045;DHT22;52192;52.002;5.956;2023-02-16T04:08:10;6.90;73.10
39045;DHT22;52192;52.002;5.956;2023-02-16T04:10:37;6.90;73.10
39045;DHT22;52192;52.002;5.956;2023-02-16T04:13:03;6.90;73.20
39045;DHT22;52192;52.002;5.956;2023-02-16T04:15:30;6.90;73.10
39045;DHT22;52192;52.002;5.956;2023-02-16T04:17:56;6.90;73.10
39045;DHT22;52192;52.002;5.956;2023-02-16T04:20:28;6.90;73.30
39045;DHT22;52192;52.002;5.956;2023-02-16T04:22:54;6.90;73.40
39045;DHT22;52192;52.002;5.956;2023-02-16T04:25:20;6.90;73.50
39045;DHT22;52192;52.002;5.956;2023-02-16T04:27:48;6.80;73.70
39045;DHT22;52192;52.002;5.956;2023-02-16T04:30:19;6.80;73.70
39045;DHT22;52192;52.002;5.956;2023-02-16T04:32:45;6.90;73.70
39045;DHT22;52192;52.002;5.956;2023-02-16T04:35:11;6.90;74.30
39045;DHT22;52192;52.002;5.956;2023-02-16T04:37:37;6.90;73.80
39045;DHT22;52192;52.002;5.956;2023-02-16T04:40:05;7.00;73.80
39045;DHT22;52192;52.002;5.956;2023-02-16T04:42:31;7.00;73.90
39045;DHT22;52192;52.002;5.956;2023-02-16T04:44:56;7.10;74.00
39045;DHT22;52192;52.002;5.956;2023-02-16T04:47:22;7.10;74.00
39045;DHT22;52192;52.002;5.956;2023-02-16T04:49:50;7.10;74.00
39045;DHT22;52192;52.002;5.956;2023-02-16T04:52:16;7.10;74.00
39045;DHT22;52192;52.002;5.956;2023-02-16T04:54:41;7.20;74.10
39045;DHT22;52192;52.002;5.956;2023-02-16T04:57:08;7.20;74.00
39045;DHT22;52192;52.002;5.956;2023-02-16T04:59:35;7.20;74.10
39045;DHT22;52192;52.002;5.956;2023-02-16T05:02:01;7.20;74.30
39045;DHT22;52192;52.002;5.956;2023-02-16T05:04:27;7.20;74.60
39045;DHT22;52192;52.002;5.956;2023-02-16T05:06:53;7.30;74.50
39045;DHT22;52192;52.002;5.956;2023-02-16T05:09:18;7.40;74.60
39045;DHT22;52192;52.002;5.956;2023-02-16T05:11:44;7.40;74.40
39045;DHT22;52192;52.002;5.956;2023-02-16T05:14:30;7.40;74.30
39045;DHT22;52192;52.002;5.956;2023-02-16T05:17:20;7.40;74.40
39045;DHT22;52192;52.002;5.956;2023-02-16T05:19:52;7.40;74.40
39045;DHT22;52192;52.002;5.956;2023-02-16T05:22:18;7.50;74.70
39045;DHT22;52192;52.002;5.956;2023-02-16T05:24:45;7.50;74.80
39045;DHT22;52192;52.002;5.956;2023-02-16T05:27:16;7.50;74.80
39045;DHT22;52192;52.002;5.956;2023-02-16T05:29:42;7.50;74.80
39045;DHT22;52192;52.002;5.956;2023-02-16T05:32:08;7.50;74.80
39045;DHT22;52192;52.002;5.956;2023-02-16T05:34:34;7.50;74.80
39045;DHT22;52192;52.002;5.956;2023-02-16T05:36:59;7.50;74.80
39045;DHT22;52192;52.002;5.956;2023-02-16T05:39:25;7.50;74.90
39045;DHT22;52192;52.002;5.956;2023-02-16T05:41:51;7.50;75.00
39045;DHT22;52192;52.002;5.956;2023-02-16T05:44:16;7.50;75.00
39045;DHT22;52192;52.002;5.956;2023-02-16T05:46:43;7.50;75.00
39045;DHT22;52192;52.002;5.956;2023-02-16T05:49:09;7.50;74.90
39045;DHT22;52192;52.002;5.956;2023-02-16T05:51:35;7.60;74.90
39045;DHT22;52192;52.002;5.956;2023-02-16T05:54:01;7.60;74.90
39045;DHT22;52192;52.002;5.956;2023-02-16T05:56:27;7.60;74.90
39045;DHT22;52192;52.002;5.956;2023-02-16T05:58:53;7.60;75.00
39045;DHT22;52192;52.002;5.956;2023-02-16T06:01:19;7.60;75.10
39045;DHT22;52192;52.002;5.956;2023-02-16T06:03:45;7.60;75.00
39045;DHT22;52192;52.002;5.956;2023-02-16T06:06:11;7.60;75.20
39045;DHT22;52192;52.002;5.956;2023-02-16T06:08:38;7.60;75.30
39045;DHT22;52192;52.002;5.956;2023-02-16T06:11:05;7.60;75.20
39045;DHT22;52192;52.002;5.956;2023-02-16T06:13:50;7.60;75.20
39045;DHT22;52192;52.002;5.956;2023-02-16T06:16:16;7.50;75.20
39045;DHT22;52192;52.002;5.956;2023-02-16T06:18:42;7.50;75.40
39045;DHT22;52192;52.002;5.956;2023-02-16T06:21:07;7.60;75.40
39045;DHT22;52192;52.002;5.956;2023-02-16T06:23:33;7.60;75.20
39045;DHT22;52192;52.002;5.956;2023-02-16T06:25:59;7.60;75.10
39045;DHT22;52192;52.002;5.956;2023-02-16T06:28:24;7.70;75.10
39045;DHT22;52192;52.002;5.956;2023-02-16T06:30:50;7.70;75.10
39045;DHT22;52192;52.002;5.956;2023-02-16T06:33:15;7.70;75.20
39045;DHT22;52192;52.002;5.956;2023-02-16T06:35:41;7.70;75.20
39045;DHT22;52192;52.002;5.956;2023-02-16T06:38:07;7.80;75.30
39045;DHT22;52192;52.002;5.956;2023-02-16T06:40:33;7.80;75.20
39045;DHT22;52192;52.002;5.956;2023-02-16T06:42:58;7.80;75.20
39045;DHT22;52192;52.002;5.956;2023-02-16T06:45:24;7.80;75.20
39045;DHT22;52192;52.002;5.956;2023-02-16T06:47:49;7.80;75.20
39045;DHT22;52192;52.002;5.956;2023-02-16T06:50:15;7.90;75.10
39045;DHT22;52192;52.002;5.956;2023-02-16T06:52:42;7.80;75.00
39045;DHT22;52192;52.002;5.956;2023-02-16T06:55:07;7.90;75.20
39045;DHT22;52192;52.002;5.956;2023-02-16T06:57:33;7.80;75.30
39045;DHT22;52192;52.002;5.956;2023-02-16T06:59:59;7.80;75.40
39045;DHT22;52192;52.002;5.956;2023-02-16T07:02:24;7.80;75.60
39045;DHT22;52192;52.002;5.956;2023-02-16T07:04:50;7.80;75.50
39045;DHT22;52192;52.002;5.956;2023-02-16T07:07:16;7.80;75.40
39045;DHT22;52192;52.002;5.956;2023-02-16T07:09:42;7.90;75.40
39045;DHT22;52192;52.002;5.956;2023-02-16T07:12:08;7.90;75.30
39045;DHT22;52192;52.002;5.956;2023-02-16T07:14:34;8.00;75.20
39045;DHT22;52192;52.002;5.956;2023-02-16T07:17:00;8.00;75.00
39045;DHT22;52192;52.002;5.956;2023-02-16T07:19:29;8.10;75.00
39045;DHT22;52192;52.002;5.956;2023-02-16T07:22:00;8.10;74.90
39045;DHT22;52192;52.002;5.956;2023-02-16T07:24:26;8.10;75.00
39045;DHT22;52192;52.002;5.956;2023-02-16T07:26:52;8.10;74.90
39045;DHT22;52192;52.002;5.956;2023-02-16T07:29:18;8.10;75.10
39045;DHT22;52192;52.002;5.956;2023-02-16T07:31:44;8.20;75.40
39045;DHT22;52192;52.002;5.956;2023-02-16T07:34:09;8.10;75.30
39045;DHT22;52192;52.002;5.956;2023-02-16T07:36:35;8.20;75.30
39045;DHT22;52192;52.002;5.956;2023-02-16T07:39:01;8.20;75.40
39045;DHT22;52192;52.002;5.956;2023-02-16T07:41:26;8.20;75.30
39045;DHT22;52192;52.002;5.956;2023-02-16T07:43:52;8.20;75.30
39045;DHT22;52192;52.002;5.956;2023-02-16T07:46:18;8.30;75.00
39045;DHT22;52192;52.002;5.956;2023-02-16T07:48:47;8.30;75.00
39045;DHT22;52192;52.002;5.956;2023-02-16T07:51:19;8.40;75.00
39045;DHT22;52192;52.002;5.956;2023-02-16T07:53:44;8.40;74.90
39045;DHT22;52192;52.002;5.956;2023-02-16T07:56:21;8.50;75.00
39045;DHT22;52192;52.002;5.956;2023-02-16T07:58:47;8.50;74.90
39045;DHT22;52192;52.002;5.956;2023-02-16T08:01:13;8.50;75.00
39045;DHT22;52192;52.002;5.956;2023-02-16T08:03:39;8.60;75.10
39045;DHT22;52192;52.002;5.956;2023-02-16T08:06:06;8.60;75.10
39045;DHT22;52192;52.002;5.956;2023-02-16T08:08:32;8.60;75.10
39045;DHT22;52192;52.002;5.956;2023-02-16T08:10:58;8.70;75.00
39045;DHT22;52192;52.002;5.956;2023-02-16T08:13:24;8.70;74.70
39045;DHT22;52192;52.002;5.956;2023-02-16T08:15:49;8.80;74.70
39045;DHT22;52192;52.002;5.956;2023-02-16T08:18:15;8.80;74.70
39045;DHT22;52192;52.002;5.956;2023-02-16T08:20:41;8.80;74.70
39045;DHT22;52192;52.002;5.956;2023-02-16T08:23:06;8.80;74.60
39045;DHT22;52192;52.002;5.956;2023-02-16T08:25:35;8.80;74.60
39045;DHT22;52192;52.002;5.956;2023-02-16T08:28:01;8.80;74.60
39045;DHT22;52192;52.002;5.956;2023-02-16T08:30:28;8.90;74.60
39045;DHT22;52192;52.002;5.956;2023-02-16T08:32:53;8.90;74.60
39045;DHT22;52192;52.002;5.956;2023-02-16T08:35:25;8.90;74.60
39045;DHT22;52192;52.002;5.956;2023-02-16T08:37:51;8.90;74.50
39045;DHT22;52192;52.002;5.956;2023-02-16T08:40:17;8.90;74.40
39045;DHT22;52192;52.002;5.956;2023-02-16T08:42:43;8.90;74.40
39045;DHT22;52192;52.002;5.956;2023-02-16T08:45:08;8.90;74.40
39045;DHT22;52192;52.002;5.956;2023-02-16T08:47:35;8.90;74.40
39045;DHT22;52192;52.002;5.956;2023-02-16T08:50:01;8.90;74.60
39045;DHT22;52192;52.002;5.956;2023-02-16T08:52:27;8.90;74.60
39045;DHT22;52192;52.002;5.956;2023-02-16T08:54:54;8.90;74.50
39045;DHT22;52192;52.002;5.956;2023-02-16T08:57:19;9.00;74.50
39045;DHT22;52192;52.002;5.956;2023-02-16T08:59:45;9.00;74.50
39045;DHT22;52192;52.002;5.956;2023-02-16T09:02:31;9.00;74.60
39045;DHT22;52192;52.002;5.956;2023-02-16T09:04:56;9.00;74.60
39045;DHT22;52192;52.002;5.956;2023-02-16T09:07:22;9.00;74.60
39045;DHT22;52192;52.002;5.956;2023-02-16T09:09:48;9.00;74.60
39045;DHT22;52192;52.002;5.956;2023-02-16T09:12:13;9.10;74.60
39045;DHT22;52192;52.002;5.956;2023-02-16T09:14:40;9.10;74.50
39045;DHT22;52192;52.002;5.956;2023-02-16T09:17:06;9.20;74.30
39045;DHT22;52192;52.002;5.956;2023-02-16T09:19:38;9.20;74.10
39045;DHT22;52192;52.002;5.956;2023-02-16T09:22:04;9.30;74.10
39045;DHT22;52192;52.002;5.956;2023-02-16T09:24:30;9.30;74.10
39045;DHT22;52192;52.002;5.956;2023-02-16T09:26:57;9.30;74.00
39045;DHT22;52192;52.002;5.956;2023-02-16T09:29:23;9.30;73.90
39045;DHT22;52192;52.002;5.956;2023-02-16T09:31:49;9.30;74.00
39045;DHT22;52192;52.002;5.956;2023-02-16T09:34:18;9.30;74.10
39045;DHT22;52192;52.002;5.956;2023-02-16T09:36:45;9.30;74.20
39045;DHT22;52192;52.002;5.956;2023-02-16T09:39:13;9.30;74.20
39045;DHT22;52192;52.002;5.956;2023-02-16T09:47:00;9.30;74.30
39045;DHT22;52192;52.002;5.956;2023-02-16T09:49:41;9.30;74.30
39045;DHT22;52192;52.002;5.956;2023-02-16T09:54:57;9.40;75.00
39045;DHT22;52192;52.002;5.956;2023-02-16T10:00:53;9.40;74.40
39045;DHT22;52192;52.002;5.956;2023-02-16T10:08:38;9.50;75.10
39045;DHT22;52192;52.002;5.956;2023-02-16T10:22:39;9.60;75.50
39045;DHT22;52192;52.002;5.956;2023-02-16T10:25:27;9.50;76.00
39045;DHT22;52192;52.002;5.956;2023-02-16T10:28:14;9.60;75.70
39045;DHT22;52192;52.002;5.956;2023-02-16T10:31:02;9.70;75.70
39045;DHT22;52192;52.002;5.956;2023-02-16T10:36:00;9.70;75.70
39045;DHT22;52192;52.002;5.956;2023-02-16T10:38:58;9.70;76.30
39045;DHT22;52192;52.002;5.956;2023-02-16T10:41:39;9.80;76.40
39045;DHT22;52192;52.002;5.956;2023-02-16T10:44:33;9.70;76.50
39045;DHT22;52192;52.002;5.956;2023-02-16T10:47:05;9.70;77.10
39045;DHT22;52192;52.002;5.956;2023-02-16T10:49:32;9.60;77.20
39045;DHT22;52192;52.002;5.956;2023-02-16T10:52:01;9.70;77.50
39045;DHT22;52192;52.002;5.956;2023-02-16T10:54:31;9.70;77.50
39045;DHT22;52192;52.002;5.956;2023-02-16T10:57:04;9.70;77.80
39045;DHT22;52192;52.002;5.956;2023-02-16T11:02:00;9.70;78.20
39045;DHT22;52192;52.002;5.956;2023-02-16T11:04:40;9.70;78.50
39045;DHT22;52192;52.002;5.956;2023-02-16T11:07:16;9.60;78.50
39045;DHT22;52192;52.002;5.956;2023-02-16T11:09:44;9.50;79.10
39045;DHT22;52192;52.002;5.956;2023-02-16T11:12:32;9.50;79.40
39045;DHT22;52192;52.002;5.956;2023-02-16T11:15:01;9.50;79.50
39045;DHT22;52192;52.002;5.956;2023-02-16T11:17:30;9.50;79.30
39045;DHT22;52192;52.002;5.956;2023-02-16T11:20:05;9.60;79.10
39045;DHT22;52192;52.002;5.956;2023-02-16T11:22:38;9.60;79.40
39045;DHT22;52192;52.002;5.956;2023-02-16T11:27:53;9.60;80.00
39045;DHT22;52192;52.002;5.956;2023-02-16T11:32:54;9.50;80.30
39045;DHT22;52192;52.002;5.956;2023-02-16T11:35:21;9.50;80.50
39045;DHT22;52192;52.002;5.956;2023-02-16T11:37:47;9.50;80.50
39045;DHT22;52192;52.002;5.956;2023-02-16T11:40:19;9.50;80.30
39045;DHT22;52192;52.002;5.956;2023-02-16T11:42:51;9.50;80.20
39045;DHT22;52192;52.002;5.956;2023-02-16T11:45:33;9.60;80.10
39045;DHT22;52192;52.002;5.956;2023-02-16T11:48:12;9.70;79.90
39045;DHT22;52192;52.002;5.956;2023-02-16T11:50:40;9.70;80.10
39045;DHT22;52192;52.002;5.956;2023-02-16T11:53:24;9.70;80.10
39045;DHT22;52192;52.002;5.956;2023-02-16T11:55:50;9.70;80.70
39045;DHT22;52192;52.002;5.956;2023-02-16T11:58:33;9.60;80.50
39045;DHT22;52192;52.002;5.956;2023-02-16T12:01:25;9.70;80.50
39045;DHT22;52192;52.002;5.956;2023-02-16T12:12:45;9.90;80.20
39045;DHT22;52192;52.002;5.956;2023-02-16T12:16:11;10.00;80.30
39045;DHT22;52192;52.002;5.956;2023-02-16T12:38:12;10.40;81.00
39045;DHT22;52192;52.002;5.956;2023-02-16T12:43:50;10.60;80.10
39045;DHT22;52192;52.002;5.956;2023-02-16T12:46:27;10.60;79.90
39045;DHT22;52192;52.002;5.956;2023-02-16T12:52:06;10.70;79.80
39045;DHT22;52192;52.002;5.956;2023-02-16T12:57:31;10.80;79.80
39045;DHT22;52192;52.002;5.956;2023-02-16T13:00:04;10.70;80.10
39045;DHT22;52192;52.002;5.956;2023-02-16T13:02:41;10.80;80.40
39045;DHT22;52192;52.002;5.956;2023-02-16T13:05:33;11.00;80.00
39045;DHT22;52192;52.002;5.956;2023-02-16T13:11:35;11.20;79.60
39045;DHT22;52192;52.002;5.956;2023-02-16T13:14:05;11.40;78.80
39045;DHT22;52192;52.002;5.956;2023-02-16T13:17:38;11.50;78.70
39045;DHT22;52192;52.002;5.956;2023-02-16T13:19:45;11.60;78.60
39045;DHT22;52192;52.002;5.956;2023-02-16T13:41:22;13.40;73.00
39045;DHT22;52192;52.002;5.956;2023-02-16T13:43:55;13.40;73.70
39045;DHT22;52192;52.002;5.956;2023-02-16T13:48:53;13.80;72.90
39045;DHT22;52192;52.002;5.956;2023-02-16T13:51:21;13.90;72.50
39045;DHT22;52192;52.002;5.956;2023-02-16T13:53:54;13.90;72.20
39045;DHT22;52192;52.002;5.956;2023-02-16T13:58:52;13.30;73.30
39045;DHT22;52192;52.002;5.956;2023-02-16T14:03:59;13.00;74.10
39045;DHT22;52192;52.002;5.956;2023-02-16T14:06:35;12.90;74.50
39045;DHT22;52192;52.002;5.956;2023-02-16T14:14:29;13.10;74.40
39045;DHT22;52192;52.002;5.956;2023-02-16T14:22:17;12.90;73.70
39045;DHT22;52192;52.002;5.956;2023-02-16T14:24:51;12.80;74.40
39045;DHT22;52192;52.002;5.956;2023-02-16T14:27:39;12.80;74.70
39045;DHT22;52192;52.002;5.956;2023-02-16T14:30:33;12.80;74.80
39045;DHT22;52192;52.002;5.956;2023-02-16T14:36:05;12.60;74.90
39045;DHT22;52192;52.002;5.956;2023-02-16T14:38:47;12.50;75.40
39045;DHT22;52192;52.002;5.956;2023-02-16T14:41:33;12.40;75.70
39045;DHT22;52192;52.002;5.956;2023-02-16T14:57:30;12.60;75.60
39045;DHT22;52192;52.002;5.956;2023-02-16T15:00:02;12.80;75.30
39045;DHT22;52192;52.002;5.956;2023-02-16T15:02:35;13.00;74.80
39045;DHT22;52192;52.002;5.956;2023-02-16T15:05:28;13.20;73.90
39045;DHT22;52192;52.002;5.956;2023-02-16T15:08:15;13.20;73.90
39045;DHT22;52192;52.002;5.956;2023-02-16T15:10:42;13.00;74.10
39045;DHT22;52192;52.002;5.956;2023-02-16T15:13:20;12.90;74.50
39045;DHT22;52192;52.002;5.956;2023-02-16T15:15:49;12.80;75.00
39045;DHT22;52192;52.002;5.956;2023-02-16T15:18:26;12.60;75.20
39045;DHT22;52192;52.002;5.956;2023-02-16T15:20:54;12.60;75.50
39045;DHT22;52192;52.002;5.956;2023-02-16T15:23:26;12.60;75.50
39045;DHT22;52192;52.002;5.956;2023-02-16T15:25:56;12.70;75.50
39045;DHT22;52192;52.002;5.956;2023-02-16T15:28:28;12.70;75.50
39045;DHT22;52192;52.002;5.956;2023-02-16T15:30:58;12.70;75.60
39045;DHT22;52192;52.002;5.956;2023-02-16T15:33:26;12.70;75.50
39045;DHT22;52192;52.002;5.956;2023-02-16T15:35:57;12.70;75.60
39045;DHT22;52192;52.002;5.956;2023-02-16T15:38:29;12.80;75.60
39045;DHT22;52192;52.002;5.956;2023-02-16T15:41:05;12.80;75.50
39045;DHT22;52192;52.002;5.956;2023-02-16T15:43:45;12.80;75.60
39045;DHT22;52192;52.002;5.956;2023-02-16T15:48:48;12.70;75.70
39045;DHT22;52192;52.002;5.956;2023-02-16T15:51:34;12.70;76.50
39045;DHT22;52192;52.002;5.956;2023-02-16T15:54:12;12.70;76.00
39045;DHT22;52192;52.002;5.956;2023-02-16T15:56:47;12.60;76.10
39045;DHT22;52192;52.002;5.956;2023-02-16T16:02:21;12.50;76.30
39045;DHT22;52192;52.002;5.956;2023-02-16T16:04:57;12.50;76.30
39045;DHT22;52192;52.002;5.956;2023-02-16T16:07:38;12.50;76.40
39045;DHT22;52192;52.002;5.956;2023-02-16T16:10:25;12.50;76.40
39045;DHT22;52192;52.002;5.956;2023-02-16T16:12:57;12.50;76.40
39045;DHT22;52192;52.002;5.956;2023-02-16T16:15:25;12.50;76.60
39045;DHT22;52192;52.002;5.956;2023-02-16T16:17:52;12.50;76.70
39045;DHT22;52192;52.002;5.956;2023-02-16T16:28:02;12.50;76.80
39045;DHT22;52192;52.002;5.956;2023-02-16T16:30:31;12.50;76.90
39045;DHT22;52192;52.002;5.956;2023-02-16T16:33:07;12.50;76.90
39045;DHT22;52192;52.002;5.956;2023-02-16T16:35:40;12.50;76.90
39045;DHT22;52192;52.002;5.956;2023-02-16T16:38:21;12.50;76.90
39045;DHT22;52192;52.002;5.956;2023-02-16T16:41:02;12.50;77.30
39045;DHT22;52192;52.002;5.956;2023-02-16T16:43:30;12.40;77.50
39045;DHT22;52192;52.002;5.956;2023-02-16T16:46:20;12.40;78.50
39045;DHT22;52192;52.002;5.956;2023-02-16T16:48:50;12.30;78.90
39045;DHT22;52192;52.002;5.956;2023-02-16T16:51:33;12.30;79.20
39045;DHT22;52192;52.002;5.956;2023-02-16T16:54:32;12.20;79.00
39045;DHT22;52192;52.002;5.956;2023-02-16T16:57:05;12.20;79.50
39045;DHT22;52192;52.002;5.956;2023-02-16T16:59:33;12.10;79.90
39045;DHT22;52192;52.002;5.956;2023-02-16T17:01:59;12.10;80.10
39045;DHT22;52192;52.002;5.956;2023-02-16T17:04:25;12.10;80.20
39045;DHT22;52192;52.002;5.956;2023-02-16T17:06:52;12.10;80.60
39045;DHT22;52192;52.002;5.956;2023-02-16T17:09:17;12.00;81.10
39045;DHT22;52192;52.002;5.956;2023-02-16T17:11:43;12.00;81.20
39045;DHT22;52192;52.002;5.956;2023-02-16T17:14:17;11.90;81.40
39045;DHT22;52192;52.002;5.956;2023-02-16T17:16:45;12.00;81.50
39045;DHT22;52192;52.002;5.956;2023-02-16T17:19:13;11.90;81.70
39045;DHT22;52192;52.002;5.956;2023-02-16T17:21:40;11.90;81.80
39045;DHT22;52192;52.002;5.956;2023-02-16T17:24:06;12.00;82.10
39045;DHT22;52192;52.002;5.956;2023-02-16T17:26:32;11.90;81.90
39045;DHT22;52192;52.002;5.956;2023-02-16T17:28:58;11.90;82.20
39045;DHT22;52192;52.002;5.956;2023-02-16T17:31:23;11.90;82.60
39045;DHT22;52192;52.002;5.956;2023-02-16T17:33:49;11.90;82.60
39045;DHT22;52192;52.002;5.956;2023-02-16T17:36:15;11.90;83.10
39045;DHT22;52192;52.002;5.956;2023-02-16T17:38:42;11.90;83.40
39045;DHT22;52192;52.002;5.956;2023-02-16T17:41:20;11.80;83.60
39045;DHT22;52192;52.002;5.956;2023-02-16T17:43:46;11.80;83.60
39045;DHT22;52192;52.002;5.956;2023-02-16T17:46:12;11.80;83.90
39045;DHT22;52192;52.002;5.956;2023-02-16T17:48:39;11.80;83.80
39045;DHT22;52192;52.002;5.956;2023-02-16T17:51:11;11.80;84.60
39045;DHT22;52192;52.002;5.956;2023-02-16T17:53:37;11.70;84.00
39045;DHT22;52192;52.002;5.956;2023-02-16T17:56:04;11.80;84.10
39045;DHT22;52192;52.002;5.956;2023-02-16T17:58:30;11.70;83.90
39045;DHT22;52192;52.002;5.956;2023-02-16T18:00:55;11.80;83.90
39045;DHT22;52192;52.002;5.956;2023-02-16T18:03:21;11.80;84.20
39045;DHT22;52192;52.002;5.956;2023-02-16T18:05:48;11.80;84.50
39045;DHT22;52192;52.002;5.956;2023-02-16T18:08:14;11.80;84.90
39045;DHT22;52192;52.002;5.956;2023-02-16T18:10:44;11.80;85.00
39045;DHT22;52192;52.002;5.956;2023-02-16T18:13:11;11.80;85.10
39045;DHT22;52192;52.002;5.956;2023-02-16T18:15:42;11.70;86.10
39045;DHT22;52192;52.002;5.956;2023-02-16T18:18:10;11.70;85.90
39045;DHT22;52192;52.002;5.956;2023-02-16T18:20:36;11.70;85.80
39045;DHT22;52192;52.002;5.956;2023-02-16T18:23:02;11.70;85.70
39045;DHT22;52192;52.002;5.956;2023-02-16T18:25:29;11.70;85.80
39045;DHT22;52192;52.002;5.956;2023-02-16T18:27:55;11.70;86.30
39045;DHT22;52192;52.002;5.956;2023-02-16T18:30:21;11.80;85.70
39045;DHT22;52192;52.002;5.956;2023-02-16T18:32:47;11.70;85.50
39045;DHT22;52192;52.002;5.956;2023-02-16T18:35:13;11.70;85.50
39045;DHT22;52192;52.002;5.956;2023-02-16T18:37:40;11.80;85.70
39045;DHT22;52192;52.002;5.956;2023-02-16T18:40:09;11.70;85.60
39045;DHT22;52192;52.002;5.956;2023-02-16T18:42:35;11.80;85.70
39045;DHT22;52192;52.002;5.956;2023-02-16T18:45:02;11.70;85.60
39045;DHT22;52192;52.002;5.956;2023-02-16T18:47:28;11.70;85.70
39045;DHT22;52192;52.002;5.956;2023-02-16T18:49:54;11.70;85.70
39045;DHT22;52192;52.002;5.956;2023-02-16T18:52:21;11.80;86.20
39045;DHT22;52192;52.002;5.956;2023-02-16T18:54:46;11.80;85.40
39045;DHT22;52192;52.002;5.956;2023-02-16T18:57:12;11.80;85.40
39045;DHT22;52192;52.002;5.956;2023-02-16T18:59:38;11.80;85.90
39045;DHT22;52192;52.002;5.956;2023-02-16T19:02:04;11.70;85.80
39045;DHT22;52192;52.002;5.956;2023-02-16T19:04:29;11.80;85.90
39045;DHT22;52192;52.002;5.956;2023-02-16T19:06:55;11.80;85.80